Time;durP1;ratioP1;P1;durP2;ratioP2;P2;SDS_P1;SDS_P2;PMS_P1;PMS_P2;Temp;Humidity;BMP_temperature;BMP_pressure;BME280_temperature;BME280_humidity;BME280_pressure;Samples;Min_cycle;Max_cycle;Signal;HPM_P1;HPM_P2
2021/07/05 00:00:00;;;;;;;8.93;2.20;;;20.80;95.40;;;;;;4253283;27;20051;-72
2021/07/05 00:02:03;;;;;;;5.28;1.80;;;20.80;95.50;;;;;;4252851;27;20874;-74
2021/07/05 00:04:06;;;;;;;7.63;1.98;;;21.00;95.70;;;;;;4248565;27;20078;-73
2021/07/05 00:06:09;;;;;;;5.90;1.67;;;21.00;95.50;;;;;;4248932;27;20057;-73
2021/07/05 00:08:13;;;;;;;10.30;2.28;;;20.90;95.50;;;;;;4249869;27;20059;-73
2021/07/05 00:10:19;;;;;;;9.30;1.98;;;20.90;95.60;;;;;;4239429;27;20051;-73
2021/07/05 00:12:23;;;;;;;5.65;1.80;;;21.00;95.50;;;;;;4238037;27;20059;-73
2021/07/05 00:14:26;;;;;;;8.45;2.03;;;21.10;95.60;;;;;;4249052;27;20043;-73
2021/07/05 00:16:29;;;;;;;6.55;1.98;;;21.10;95.50;;;;;;4248074;27;20055;-74
2021/07/05 00:18:32;;;;;;;7.35;1.75;;;21.20;95.40;;;;;;4248414;27;20057;-73
2021/07/05 00:20:45;;;;;;;5.65;1.80;;;21.30;95.30;;;;;;4229799;28;20053;-73
2021/07/05 00:22:49;;;;;;;6.35;2.00;;;21.20;95.20;;;;;;4247508;27;20061;-72
2021/07/05 00:24:52;;;;;;;8.15;2.08;;;21.30;95.20;;;;;;4247220;27;20534;-73
2021/07/05 00:26:56;;;;;;;9.60;2.03;;;21.20;95.10;;;;;;4247416;27;20521;-72
2021/07/05 00:29:00;;;;;;;7.60;2.20;;;21.00;95.20;;;;;;4247274;27;20043;-73
2021/07/05 00:31:04;;;;;;;9.70;1.83;;;21.00;95.50;;;;;;4247335;27;20058;-73
2021/07/05 00:33:07;;;;;;;6.38;2.00;;;20.90;95.60;;;;;;4247028;27;20103;-73
2021/07/05 00:35:11;;;;;;;7.32;2.00;;;20.80;95.80;;;;;;4246932;27;20051;-72
2021/07/05 00:37:14;;;;;;;6.47;1.70;;;20.70;96.00;;;;;;4229141;28;20060;-72
2021/07/05 00:39:17;;;;;;;9.68;1.90;;;20.80;95.90;;;;;;4246654;27;20055;-73
2021/07/05 00:41:20;;;;;;;8.00;2.17;;;21.00;95.80;;;;;;4247197;27;20507;-71
2021/07/05 00:43:25;;;;;;;5.18;1.98;;;20.90;95.80;;;;;;4246777;27;20047;-73
2021/07/05 00:45:29;;;;;;;6.80;2.10;;;20.80;96.20;;;;;;4247045;27;20043;-73
2021/07/05 00:47:33;;;;;;;11.82;2.22;;;20.60;96.50;;;;;;4247164;27;20065;-74
2021/07/05 00:49:36;;;;;;;6.57;2.15;;;20.50;96.80;;;;;;4246722;27;20549;-74
2021/07/05 00:51:39;;;;;;;7.00;1.70;;;20.50;97.10;;;;;;4246904;27;20463;-72
2021/07/05 00:53:42;;;;;;;6.85;1.98;;;20.30;97.00;;;;;;4246952;27;20051;-72
2021/07/05 00:55:46;;;;;;;6.38;2.20;;;20.30;97.40;;;;;;4246777;27;20646;-73
2021/07/05 00:57:49;;;;;;;14.88;2.72;;;20.30;97.40;;;;;;4246745;27;20074;-73
2021/07/05 00:59:55;;;;;;;8.32;2.10;;;20.40;97.50;;;;;;4246720;27;20476;-74
2021/07/05 01:01:58;;;;;;;7.55;1.98;;;20.30;97.20;;;;;;4247659;27;20057;-73
2021/07/05 01:04:01;;;;;;;8.65;2.10;;;20.30;97.10;;;;;;4250454;27;20054;-72
2021/07/05 01:06:05;;;;;;;9.35;2.05;;;20.40;97.00;;;;;;4251482;27;20064;-71
2021/07/05 01:08:08;;;;;;;9.00;2.17;;;20.40;96.80;;;;;;4247660;27;20065;-71
2021/07/05 01:10:12;;;;;;;10.85;1.88;;;20.40;96.90;;;;;;4245924;27;20087;-73
2021/07/05 01:12:15;;;;;;;10.50;2.57;;;20.40;96.80;;;;;;4246879;27;20441;-72
2021/07/05 01:14:18;;;;;;;11.13;2.53;;;20.30;96.80;;;;;;4246312;27;20484;-71
2021/07/05 01:16:22;;;;;;;10.45;2.47;;;20.30;96.80;;;;;;4243103;27;20670;-72
2021/07/05 01:18:27;;;;;;;9.05;2.22;;;20.30;96.70;;;;;;4246385;27;20541;-72
2021/07/05 01:20:32;;;;;;;7.32;1.92;;;20.30;97.00;;;;;;4245866;27;20043;-72
2021/07/05 01:22:36;;;;;;;6.90;1.98;;;20.30;96.90;;;;;;4246256;27;20051;-72
2021/07/05 01:24:40;;;;;;;9.95;2.05;;;20.30;96.80;;;;;;4245689;27;20051;-74
2021/07/05 01:26:44;;;;;;;6.50;2.28;;;20.40;96.80;;;;;;4242821;27;20053;-73
2021/07/05 01:28:47;;;;;;;5.80;1.80;;;20.50;96.70;;;;;;4228487;28;20052;-72
2021/07/05 01:30:50;;;;;;;7.65;2.05;;;20.40;96.50;;;;;;4246099;27;20047;-72
2021/07/05 01:32:55;;;;;;;5.07;1.60;;;20.50;96.50;;;;;;4246222;27;20505;-72
2021/07/05 01:34:58;;;;;;;9.23;2.35;;;20.30;96.70;;;;;;4245806;27;20055;-72
2021/07/05 01:37:02;;;;;;;7.97;2.10;;;20.10;97.00;;;;;;4245981;27;20426;-72
2021/07/05 01:39:08;;;;;;;9.43;2.33;;;20.10;96.90;;;;;;4246003;27;20491;-72
2021/07/05 01:41:11;;;;;;;13.00;2.20;;;20.30;96.80;;;;;;4245523;27;20108;-72
2021/07/05 01:43:14;;;;;;;5.72;2.00;;;20.40;97.00;;;;;;4245749;27;20061;-70
2021/07/05 01:45:18;;;;;;;7.13;2.03;;;20.40;96.90;;;;;;4245564;27;20061;-70
2021/07/05 01:47:21;;;;;;;6.88;2.08;;;20.50;96.90;;;;;;4242142;27;20061;-72
2021/07/05 01:49:24;;;;;;;7.25;2.03;;;20.40;97.00;;;;;;4246070;27;20057;-72
2021/07/05 01:51:28;;;;;;;6.00;2.15;;;20.40;97.50;;;;;;4245566;27;20065;-71
2021/07/05 01:53:31;;;;;;;6.90;1.92;;;20.30;97.90;;;;;;4246087;27;20065;-72
2021/07/05 01:55:36;;;;;;;5.47;1.90;;;20.30;97.80;;;;;;4245583;27;20055;-72
2021/07/05 01:57:39;;;;;;;11.25;2.33;;;20.00;97.90;;;;;;4245813;27;20052;-71
2021/07/05 01:59:42;;;;;;;8.05;1.95;;;20.00;98.20;;;;;;4245830;27;20492;-71
2021/07/05 02:01:45;;;;;;;8.38;2.10;;;20.10;98.30;;;;;;4245478;27;20504;-70
2021/07/05 02:03:48;;;;;;;10.45;2.10;;;20.30;98.20;;;;;;4245959;27;20055;-73
2021/07/05 02:05:51;;;;;;;7.63;1.95;;;20.30;98.10;;;;;;4248494;27;20081;-71
2021/07/05 02:07:55;;;;;;;7.63;2.03;;;20.30;98.00;;;;;;4248089;27;20061;-72
2021/07/05 02:09:58;;;;;;;9.07;2.10;;;20.40;97.90;;;;;;4238392;27;20063;-72
2021/07/05 02:12:03;;;;;;;7.47;2.40;;;20.50;98.00;;;;;;4237282;27;20061;-73
2021/07/05 02:14:07;;;;;;;6.47;1.83;;;20.50;97.90;;;;;;4240661;27;20057;-72
2021/07/05 02:16:10;;;;;;;7.18;2.22;;;20.60;97.40;;;;;;4245518;27;20055;-71
2021/07/05 02:18:13;;;;;;;7.47;2.45;;;20.70;97.70;;;;;;4245344;27;20061;-72
2021/07/05 02:20:20;;;;;;;7.10;2.10;;;20.70;97.90;;;;;;4245333;27;20136;-71
2021/07/05 02:22:23;;;;;;;7.20;2.10;;;20.70;97.80;;;;;;4245404;27;20414;-73
2021/07/05 02:24:27;;;;;;;7.32;2.20;;;20.70;98.20;;;;;;4245485;27;20055;-72
2021/07/05 02:26:30;;;;;;;8.25;1.98;;;20.70;97.90;;;;;;4245982;27;20051;-72
2021/07/05 02:28:36;;;;;;;5.97;2.08;;;20.60;98.10;;;;;;4245159;27;20067;-72
2021/07/05 02:30:41;;;;;;;7.07;2.13;;;20.40;98.40;;;;;;4245643;27;20051;-71
2021/07/05 02:32:44;;;;;;;13.85;2.35;;;20.50;98.50;;;;;;4245280;27;20095;-72
2021/07/05 02:34:48;;;;;;;6.97;2.50;;;20.40;98.60;;;;;;4246038;27;20144;-72
2021/07/05 02:36:51;;;;;;;5.88;2.03;;;20.50;98.30;;;;;;4245614;27;20433;-73
2021/07/05 02:38:54;;;;;;;7.03;1.95;;;20.60;98.30;;;;;;4245295;27;20423;-72
2021/07/05 02:40:57;;;;;;;7.97;2.67;;;20.50;98.60;;;;;;4245789;27;20399;-71
2021/07/05 02:43:02;;;;;;;5.75;2.08;;;20.50;98.40;;;;;;4245541;27;20051;-71
2021/07/05 02:45:08;;;;;;;9.03;2.20;;;20.50;98.30;;;;;;4245007;27;20047;-71
2021/07/05 02:47:11;;;;;;;8.60;2.10;;;20.40;98.70;;;;;;4245386;27;20055;-71
2021/07/05 02:49:15;;;;;;;7.70;2.30;;;20.40;98.50;;;;;;4244814;27;20051;-72
2021/07/05 02:51:18;;;;;;;8.18;2.20;;;20.40;98.60;;;;;;4245560;27;20475;-72
2021/07/05 02:53:22;;;;;;;5.93;1.80;;;20.50;98.40;;;;;;4245677;27;20518;-72
2021/07/05 02:55:26;;;;;;;5.28;1.85;;;20.40;98.30;;;;;;4245136;27;20055;-73
2021/07/05 02:57:29;;;;;;;8.57;2.33;;;20.40;98.60;;;;;;4245796;27;20059;-72
2021/07/05 02:59:32;;;;;;;8.38;2.20;;;20.30;98.90;;;;;;4245237;27;20759;-72
2021/07/05 03:01:37;;;;;;;7.68;2.10;;;20.40;98.60;;;;;;4245217;27;20051;-70
2021/07/05 03:03:40;;;;;;;7.35;2.15;;;20.50;98.60;;;;;;4227269;28;20048;-70
2021/07/05 03:05:43;;;;;;;6.03;2.35;;;20.40;98.50;;;;;;4245206;27;20052;-71
2021/07/05 03:07:46;;;;;;;5.72;2.20;;;20.40;98.10;;;;;;4245324;27;20518;-72
2021/07/05 03:09:49;;;;;;;5.60;1.65;;;20.40;98.80;;;;;;4243036;27;20043;-71
2021/07/05 03:11:52;;;;;;;5.72;1.80;;;20.30;98.50;;;;;;4248846;27;20062;-71
2021/07/05 03:13:55;;;;;;;6.43;2.20;;;20.40;98.40;;;;;;4249046;27;20047;-71
2021/07/05 03:15:59;;;;;;;8.38;2.08;;;20.40;98.70;;;;;;4229763;28;20062;-71
2021/07/05 03:18:04;;;;;;;9.95;2.28;;;20.40;98.40;;;;;;4245269;27;20051;-72
2021/07/05 03:20:10;;;;;;;10.23;2.50;;;20.40;98.90;;;;;;4244973;27;20047;-71
2021/07/05 03:22:17;;;;;;;6.32;1.95;;;20.40;99.30;;;;;;4245575;27;20400;-72
2021/07/05 03:24:20;;;;;;;9.05;2.15;;;20.50;98.70;;;;;;4245125;27;20055;-71
2021/07/05 03:26:23;;;;;;;7.97;1.90;;;20.50;98.40;;;;;;4245471;27;20059;-74
2021/07/05 03:28:26;;;;;;;5.93;2.40;;;20.60;98.30;;;;;;4245242;27;20062;-73
2021/07/05 03:30:29;;;;;;;6.55;2.28;;;20.50;99.10;;;;;;4245115;27;20062;-72
2021/07/05 03:32:33;;;;;;;8.23;2.55;;;20.50;98.60;;;;;;4246522;27;20051;-73
2021/07/05 03:34:37;;;;;;;11.25;2.63;;;20.50;99.10;;;;;;4248225;27;20399;-73
2021/07/05 03:36:40;;;;;;;5.85;2.15;;;20.50;99.60;;;;;;4248226;27;20066;-73
2021/07/05 03:38:43;;;;;;;9.30;2.63;;;20.50;99.60;;;;;;4248440;27;20062;-72
2021/07/05 03:40:48;;;;;;;8.82;2.42;;;20.40;99.90;;;;;;4248133;27;20085;-72
2021/07/05 03:42:51;;;;;;;16.30;3.95;;;20.30;99.90;;;;;;4248193;27;20043;-73
2021/07/05 03:44:54;;;;;;;9.02;2.83;;;20.40;99.90;;;;;;4248364;27;20054;-71
2021/07/05 03:46:57;;;;;;;8.80;2.58;;;20.30;99.90;;;;;;4248548;27;20051;-73
2021/07/05 03:49:00;;;;;;;8.63;2.28;;;20.10;99.90;;;;;;4248228;27;20051;-71
2021/07/05 03:51:05;;;;;;;7.63;2.60;;;20.10;99.90;;;;;;4248123;27;20047;-73
2021/07/05 03:53:08;;;;;;;11.80;2.85;;;20.10;99.90;;;;;;4248218;27;20057;-74
2021/07/05 03:55:13;;;;;;;9.40;2.25;;;20.10;99.90;;;;;;4247704;27;20047;-73
2021/07/05 03:57:23;;;;;;;10.63;2.67;;;20.20;99.90;;;;;;4248239;27;20059;-71
2021/07/05 03:59:26;;;;;;;5.90;2.38;;;20.30;99.90;;;;;;4248209;27;20043;-72
2021/07/05 04:01:29;;;;;;;6.60;2.35;;;20.30;99.90;;;;;;4248034;27;20051;-71
2021/07/05 04:03:32;;;;;;;9.68;3.03;;;20.20;99.90;;;;;;4248030;27;20518;-72
2021/07/05 04:05:36;;;;;;;9.50;2.95;;;20.20;99.90;;;;;;4247560;27;20051;-72
2021/07/05 04:07:42;;;;;;;6.50;2.35;;;20.30;99.90;;;;;;4248231;27;20419;-72
2021/07/05 04:09:45;;;;;;;6.68;2.15;;;20.20;99.90;;;;;;4248207;27;20054;-72
2021/07/05 04:11:48;;;;;;;7.60;2.90;;;20.20;99.90;;;;;;4249818;27;20489;-72
2021/07/05 04:13:52;;;;;;;7.65;2.80;;;20.10;99.90;;;;;;4249785;27;20073;-72
2021/07/05 04:15:55;;;;;;;12.88;3.42;;;20.10;99.90;;;;;;4250982;27;20082;-72
2021/07/05 04:17:58;;;;;;;9.32;3.20;;;20.00;99.90;;;;;;4250675;27;20051;-72
2021/07/05 04:20:05;;;;;;;16.17;3.70;;;19.90;99.90;;;;;;4248689;27;20055;-72
2021/07/05 04:22:08;;;;;;;9.85;3.30;;;19.80;99.90;;;;;;4250381;27;20039;-73
2021/07/05 04:24:13;;;;;;;7.78;3.35;;;19.80;99.90;;;;;;4251371;27;20058;-73
2021/07/05 04:26:16;;;;;;;7.35;2.65;;;19.80;99.90;;;;;;4247475;27;20564;-72
2021/07/05 04:28:19;;;;;;;13.50;3.55;;;19.90;99.90;;;;;;4247518;27;20055;-71
2021/07/05 04:30:22;;;;;;;10.07;3.55;;;19.90;99.90;;;;;;4248085;27;20089;-72
2021/07/05 04:32:26;;;;;;;8.02;2.65;;;19.90;99.90;;;;;;4247554;27;20507;-72
2021/07/05 04:34:29;;;;;;;8.40;2.72;;;19.90;99.90;;;;;;4248042;27;20150;-72
2021/07/05 04:36:32;;;;;;;8.90;3.45;;;19.90;99.90;;;;;;4247501;27;20051;-72
2021/07/05 04:38:36;;;;;;;9.65;2.75;;;19.80;99.90;;;;;;4247645;27;20670;-71
2021/07/05 04:40:41;;;;;;;8.02;3.80;;;19.80;99.90;;;;;;4247774;27;20051;-71
2021/07/05 04:42:45;;;;;;;7.75;3.83;;;19.70;99.90;;;;;;4247432;27;20059;-71
2021/07/05 04:44:50;;;;;;;6.97;3.10;;;19.70;99.90;;;;;;4247618;27;20055;-71
2021/07/05 04:46:53;;;;;;;;;;;19.60;99.90;;;;;;4247847;27;20167;-73
2021/07/05 04:48:56;;;;;;;5.72;2.70;;;19.70;99.90;;;;;;4247796;27;19923;-71
2021/07/05 04:51:00;;;;;;;5.00;2.47;;;19.80;99.90;;;;;;4247956;27;20057;-71
2021/07/05 04:53:04;;;;;;;5.97;2.78;;;19.70;99.90;;;;;;4247451;27;20058;-72
2021/07/05 04:55:10;;;;;;;8.43;2.63;;;19.70;99.90;;;;;;4247280;27;20058;-72
2021/07/05 04:57:14;;;;;;;4.43;2.42;;;19.50;99.90;;;;;;4247107;27;20423;-70
2021/07/05 04:59:17;;;;;;;5.05;2.55;;;19.50;99.90;;;;;;4247225;27;20444;-71
2021/07/05 05:01:20;;;;;;;7.28;2.33;;;19.20;99.90;;;;;;4247214;27;20521;-71
2021/07/05 05:03:23;;;;;;;7.35;2.50;;;19.30;99.90;;;;;;4246638;27;20051;-71
2021/07/05 05:05:27;;;;;;;3.78;2.25;;;19.50;99.90;;;;;;4247342;27;20545;-70
2021/07/05 05:07:30;;;;;;;7.22;2.55;;;19.30;99.90;;;;;;4246903;27;20062;-70
2021/07/05 05:09:33;;;;;;;4.72;2.10;;;19.40;99.90;;;;;;4230066;27;20074;-72
2021/07/05 05:11:36;;;;;;;5.35;2.65;;;19.40;99.90;;;;;;4233786;27;20056;-72
2021/07/05 05:13:41;;;;;;;4.55;2.08;;;19.30;99.90;;;;;;4243732;27;20438;-72
2021/07/05 05:15:44;;;;;;;7.10;2.60;;;19.30;99.90;;;;;;4228851;27;20055;-71
2021/07/05 05:17:47;;;;;;;6.50;2.10;;;19.30;99.90;;;;;;4228635;28;20051;-72
2021/07/05 05:19:50;;;;;;;5.50;2.15;;;19.30;99.90;;;;;;4246714;27;20388;-73
2021/07/05 05:21:53;;;;;;;3.80;1.80;;;19.40;99.90;;;;;;4246924;27;20073;-72
2021/07/05 05:23:56;;;;;;;7.10;2.20;;;19.40;99.90;;;;;;4247689;27;20654;-71
2021/07/05 05:26:00;;;;;;;2.90;1.90;;;19.40;99.90;;;;;;4248160;27;20080;-70
2021/07/05 05:28:03;;;;;;;4.18;1.45;;;19.50;99.90;;;;;;4248381;27;20043;-72
2021/07/05 05:30:10;;;;;;;3.60;1.85;;;19.60;99.90;;;;;;4250437;27;20047;-72
2021/07/05 05:32:20;;;;;;;5.55;1.50;;;19.60;99.90;;;;;;4250972;27;20380;-72
2021/07/05 05:34:23;;;;;;;3.83;1.80;;;19.70;99.90;;;;;;4249101;27;20061;-72
2021/07/05 05:36:27;;;;;;;2.97;1.67;;;19.70;99.90;;;;;;4247228;27;20043;-72
2021/07/05 05:38:30;;;;;;;4.82;1.75;;;19.70;99.90;;;;;;4246736;27;20414;-72
2021/07/05 05:40:37;;;;;;;3.10;1.60;;;19.70;99.90;;;;;;4235726;27;20061;-73
2021/07/05 05:42:41;;;;;;;3.05;1.50;;;19.70;99.90;;;;;;4246613;27;20051;-74
2021/07/05 05:44:45;;;;;;;2.55;1.30;;;19.70;99.90;;;;;;4246171;27;20468;-74
2021/07/05 05:46:49;;;;;;;4.68;1.50;;;19.70;99.90;;;;;;4246610;27;20059;-72
2021/07/05 05:48:52;;;;;;;2.92;1.52;;;19.90;99.90;;;;;;4246283;27;20051;-72
2021/07/05 05:50:56;;;;;;;3.30;1.73;;;19.90;99.90;;;;;;4237646;27;20063;-74
2021/07/05 05:52:59;;;;;;;4.63;1.65;;;19.90;99.90;;;;;;4246631;27;20061;-72
2021/07/05 05:55:04;;;;;;;3.97;1.70;;;20.00;99.90;;;;;;4245732;27;20047;-72
2021/07/05 05:57:08;;;;;;;3.25;2.00;;;19.90;99.90;;;;;;4246299;27;20059;-72
2021/07/05 05:59:11;;;;;;;6.00;1.88;;;19.90;99.90;;;;;;4246505;27;20407;-72
2021/07/05 06:01:15;;;;;;;4.00;1.60;;;19.90;99.90;;;;;;4235536;27;20058;-72
2021/07/05 06:03:19;;;;;;;2.75;1.27;;;19.90;99.90;;;;;;4228435;28;20056;-72
2021/07/05 06:05:22;;;;;;;2.35;1.60;;;20.00;99.90;;;;;;4245880;27;20047;-71
2021/07/05 06:07:25;;;;;;;3.25;1.60;;;19.90;99.90;;;;;;4246482;27;20061;-74
2021/07/05 06:09:28;;;;;;;4.00;1.95;;;20.10;99.90;;;;;;4246021;27;20077;-71
2021/07/05 06:11:32;;;;;;;3.40;1.67;;;20.10;99.90;;;;;;4246273;27;20047;-73
2021/07/05 06:13:35;;;;;;;3.25;1.40;;;20.10;99.90;;;;;;4246256;27;20593;-72
2021/07/05 06:15:38;;;;;;;5.25;1.52;;;20.10;99.90;;;;;;4246060;27;20054;-72
2021/07/05 06:17:42;;;;;;;2.45;1.40;;;20.10;99.90;;;;;;4245510;27;20061;-74
2021/07/05 06:19:46;;;;;;;1.42;1.20;;;20.10;99.90;;;;;;4245865;27;20055;-71
2021/07/05 06:21:50;;;;;;;1.73;1.02;;;20.00;99.90;;;;;;4245827;27;20043;-72
2021/07/05 06:23:54;;;;;;;2.17;1.30;;;20.10;99.90;;;;;;4246195;27;20066;-72
2021/07/05 06:26:00;;;;;;;2.95;1.45;;;20.10;99.90;;;;;;4245922;27;20388;-73
2021/07/05 06:28:04;;;;;;;4.70;1.25;;;20.20;99.90;;;;;;4245774;27;20426;-73
2021/07/05 06:30:08;;;;;;;3.20;1.37;;;20.30;99.90;;;;;;4246137;27;20047;-71
2021/07/05 06:32:11;;;;;;;4.05;1.40;;;20.20;99.90;;;;;;4245692;27;20051;-73
2021/07/05 06:34:15;;;;;;;2.17;1.15;;;20.30;99.90;;;;;;4245930;27;20120;-72
2021/07/05 06:36:19;;;;;;;1.88;1.08;;;20.30;99.90;;;;;;4247771;27;20055;-71
2021/07/05 06:38:22;;;;;;;1.35;1.00;;;20.20;99.90;;;;;;4250633;27;20120;-72
2021/07/05 06:40:26;;;;;;;2.05;1.27;;;20.30;99.90;;;;;;4250912;27;20124;-72
2021/07/05 06:42:29;;;;;;;1.88;1.40;;;20.30;99.90;;;;;;4250672;27;20172;-72
2021/07/05 06:44:32;;;;;;;3.15;1.30;;;20.40;99.90;;;;;;4250784;27;20588;-72
2021/07/05 06:46:35;;;;;;;3.03;1.17;;;20.40;99.90;;;;;;4234960;28;20055;-71
2021/07/05 06:48:38;;;;;;;2.40;1.42;;;20.50;99.90;;;;;;4252602;27;20413;-71
2021/07/05 06:50:42;;;;;;;1.38;1.10;;;20.50;99.90;;;;;;4250171;27;20050;-72
2021/07/05 06:52:46;;;;;;;1.98;1.30;;;20.40;99.90;;;;;;4245856;27;20059;-71
2021/07/05 06:54:49;;;;;;;2.67;1.40;;;20.20;99.90;;;;;;4245458;27;20426;-72
2021/07/05 06:56:52;;;;;;;4.55;1.70;;;20.30;99.90;;;;;;4245949;27;20058;-72
2021/07/05 06:58:55;;;;;;;2.65;1.27;;;20.10;99.90;;;;;;4245423;27;20511;-71
2021/07/05 07:01:00;;;;;;;2.97;1.27;;;20.10;99.90;;;;;;4245848;27;20055;-72
2021/07/05 07:03:05;;;;;;;4.47;1.85;;;20.00;99.90;;;;;;4245329;27;20051;-72
2021/07/05 07:05:10;;;;;;;3.63;1.73;;;20.00;99.90;;;;;;4245350;27;20052;-73
2021/07/05 07:07:13;;;;;;;5.00;1.90;;;20.10;99.90;;;;;;4247635;27;20063;-71
2021/07/05 07:09:18;;;;;;;3.25;1.50;;;20.10;99.90;;;;;;4245468;27;20043;-72
2021/07/05 07:11:21;;;;;;;;;;;20.20;99.90;;;;;;4238874;27;20371;-71
2021/07/05 07:13:24;;;;;;;6.32;1.65;;;20.20;99.90;;;;;;4248624;27;19925;-73
2021/07/05 07:15:38;;;;;;;4.50;1.83;;;20.10;99.90;;;;;;4248970;27;20434;-73
2021/07/05 07:20:10;;;;;;;5.90;1.70;;;19.90;99.90;;;;;;4210514;27;20051;-72
2021/07/05 07:22:13;;;;;;;4.00;1.55;;;20.00;99.90;;;;;;4248316;27;20082;-72
2021/07/05 07:24:19;;;;;;;3.20;1.48;;;19.90;99.90;;;;;;4248595;27;20054;-72
2021/07/05 07:26:22;;;;;;;3.30;1.60;;;19.90;99.90;;;;;;4248517;27;20054;-72
2021/07/05 07:28:25;;;;;;;5.32;1.40;;;20.00;99.90;;;;;;4248454;27;20051;-72
2021/07/05 07:30:28;;;;;;;4.22;1.52;;;19.90;99.90;;;;;;4248218;27;20051;-73
2021/07/05 07:32:35;;;;;;;10.27;1.60;;;19.90;99.90;;;;;;4248084;27;20423;-71
2021/07/05 07:34:39;;;;;;;6.28;1.58;;;20.00;99.90;;;;;;4248125;27;20055;-71
2021/07/05 07:36:43;;;;;;;8.27;1.70;;;20.20;99.90;;;;;;4248409;27;20047;-73
2021/07/05 07:38:48;;;;;;;5.05;2.17;;;20.30;99.90;;;;;;4247795;27;20085;-72
2021/07/05 07:40:54;;;;;;;;;;;20.30;99.90;;;;;;4248775;27;20576;-72
2021/07/05 07:42:56;;;;;;;;;;;20.30;99.90;;;;;;4248594;27;19919;-73
2021/07/05 07:44:59;;;;;;;6.03;2.05;;;20.10;99.90;;;;;;4247666;27;19923;-71
2021/07/05 07:47:03;;;;;;;6.32;2.10;;;20.30;99.90;;;;;;4248243;27;20055;-72
2021/07/05 07:49:08;;;;;;;5.13;1.75;;;20.40;99.90;;;;;;4247693;27;20066;-73
2021/07/05 07:51:11;;;;;;;3.17;1.55;;;20.50;99.90;;;;;;4247939;27;20055;-72
2021/07/05 07:53:14;;;;;;;4.15;1.60;;;20.60;99.90;;;;;;4247747;27;20055;-73
2021/07/05 07:55:17;;;;;;;3.83;1.83;;;20.60;99.90;;;;;;4247651;27;20051;-73
2021/07/05 07:57:22;;;;;;;5.53;1.77;;;20.70;99.90;;;;;;4245411;27;20077;-72
2021/07/05 07:59:25;;;;;;;9.73;2.15;;;20.80;99.90;;;;;;4246579;27;20070;-70
2021/07/05 08:01:29;;;;;;;5.90;1.80;;;20.80;99.90;;;;;;4247057;27;20379;-71
2021/07/05 08:03:32;;;;;;;4.13;1.90;;;21.00;99.90;;;;;;4243038;27;20047;-71
2021/07/05 08:05:35;;;;;;;5.97;1.98;;;21.20;99.90;;;;;;4245675;27;20074;-72
2021/07/05 08:07:42;;;;;;;6.75;2.03;;;21.30;99.90;;;;;;4241289;27;20059;-71
2021/07/05 08:09:46;;;;;;;7.20;2.35;;;21.40;99.90;;;;;;4237286;27;20051;-72
2021/07/05 08:11:49;;;;;;;5.40;1.77;;;21.50;99.90;;;;;;4245524;27;20055;-70
2021/07/05 08:13:53;;;;;;;5.53;2.10;;;21.60;99.90;;;;;;4245891;27;20058;-71
2021/07/05 08:15:56;;;;;;;8.35;1.90;;;21.80;99.90;;;;;;4246042;27;20051;-71
2021/07/05 08:17:59;;;;;;;6.28;1.95;;;21.80;99.90;;;;;;4245539;27;20066;-72
2021/07/05 08:20:05;;;;;;;4.45;1.60;;;21.90;99.90;;;;;;4245689;27;20133;-70
2021/07/05 08:22:09;;;;;;;4.97;1.90;;;21.90;99.90;;;;;;4245955;27;20051;-71
2021/07/05 08:24:13;;;;;;;8.23;2.05;;;21.80;99.80;;;;;;4227822;28;20055;-72
2021/07/05 08:26:18;;;;;;;8.57;2.10;;;22.10;99.90;;;;;;4245888;27;20048;-73
2021/07/05 08:28:23;;;;;;;6.60;3.00;;;22.10;99.90;;;;;;4246379;27;20082;-72
2021/07/05 08:30:28;;;;;;;8.02;2.83;;;22.10;99.50;;;;;;4247066;27;20385;-72
2021/07/05 08:32:31;;;;;;;12.88;2.80;;;22.10;99.00;;;;;;4247345;27;20063;-72
2021/07/05 08:34:35;;;;;;;7.15;2.40;;;21.90;99.70;;;;;;4247372;27;20084;-71
2021/07/05 08:36:40;;;;;;;6.82;2.20;;;21.90;99.30;;;;;;4247704;27;20581;-71
2021/07/05 08:38:43;;;;;;;6.47;2.72;;;22.10;99.60;;;;;;4247555;27;20053;-71
2021/07/05 08:40:46;;;;;;;10.52;2.42;;;22.20;99.30;;;;;;4247021;27;20130;-71
2021/07/05 08:42:49;;;;;;;7.32;2.47;;;22.20;99.10;;;;;;4247438;27;20130;-71
2021/07/05 08:44:54;;;;;;;8.55;2.50;;;22.30;99.10;;;;;;4247081;27;20047;-72
2021/07/05 08:47:01;;;;;;;9.48;2.83;;;22.40;99.60;;;;;;4248091;27;20055;-71
2021/07/05 08:49:04;;;;;;;5.07;2.45;;;22.40;98.80;;;;;;4247285;27;20065;-72
2021/07/05 08:51:09;;;;;;;5.72;2.55;;;22.50;98.80;;;;;;4247111;27;20071;-71
2021/07/05 08:53:12;;;;;;;;;;;22.60;98.60;;;;;;4247754;27;20055;-72
2021/07/05 08:55:17;;;;;;;9.73;2.95;;;22.70;98.10;;;;;;4247947;27;19929;-73
2021/07/05 08:57:38;;;;;;;10.52;2.60;;;22.60;98.10;;;;;;4247238;27;20751;-72
2021/07/05 08:59:41;;;;;;;8.30;3.33;;;22.70;98.70;;;;;;4247356;27;20058;-72
2021/07/05 09:01:46;;;;;;;4.60;2.80;;;22.70;98.00;;;;;;4246746;27;20414;-71
2021/07/05 09:03:51;;;;;;;12.73;3.95;;;22.60;98.00;;;;;;4247158;27;20051;-72
2021/07/05 09:06:06;;;;;;;;;;;22.50;98.70;;;;;;4247572;27;20047;-71
2021/07/05 09:08:11;;;;;;;10.63;3.80;;;22.40;98.70;;;;;;4247280;27;19919;-71
2021/07/05 09:10:13;;;;;;;8.10;3.70;;;22.40;99.30;;;;;;4246533;27;20051;-72
2021/07/05 09:12:16;;;;;;;8.07;3.13;;;22.50;99.50;;;;;;4222262;28;20064;-72
2021/07/05 09:14:22;;;;;;;8.82;3.50;;;22.60;98.70;;;;;;4230046;28;20381;-72
2021/07/05 09:16:30;;;;;;;8.13;3.63;;;22.50;97.70;;;;;;4243497;27;20089;-72
2021/07/05 09:18:43;;;;;;;10.85;3.38;;;22.70;97.90;;;;;;4251795;27;20393;-71
2021/07/05 09:20:48;;;;;;;8.48;3.05;;;22.80;98.00;;;;;;4232704;28;20502;-71
2021/07/05 09:23:11;;;;;;;12.57;3.83;;;22.80;97.20;;;;;;4249829;27;20053;-71
2021/07/05 09:25:31;;;;;;;13.02;4.05;;;22.50;97.70;;;;;;4250183;27;20612;-72
2021/07/05 09:27:34;;;;;;;6.18;3.47;;;22.50;97.60;;;;;;4249795;27;20393;-71
2021/07/05 09:29:39;;;;;;;8.05;3.67;;;22.50;98.20;;;;;;4247370;27;20059;-72
2021/07/05 09:31:46;;;;;;;8.75;3.70;;;22.60;98.10;;;;;;4227845;27;20435;-71
2021/07/05 09:33:49;;;;;;;7.13;3.45;;;22.60;98.40;;;;;;4246577;27;20541;-72
2021/07/05 09:35:56;;;;;;;8.93;2.15;;;22.60;98.70;;;;;;4246558;27;20043;-72
2021/07/05 09:38:01;;;;;;;2.47;1.30;;;22.40;98.70;;;;;;4246092;27;20055;-71
2021/07/05 09:40:12;;;;;;;2.83;1.30;;;22.20;99.10;;;;;;4246157;27;20406;-71
2021/07/05 09:42:15;;;;;;;7.15;1.92;;;22.30;99.00;;;;;;4245371;27;20061;-70
2021/07/05 09:44:20;;;;;;;7.03;1.95;;;22.40;99.20;;;;;;4246176;27;20051;-72
2021/07/05 09:46:34;;;;;;;3.33;1.73;;;22.60;99.10;;;;;;4245972;27;20051;-71
2021/07/05 09:48:44;;;;;;;3.55;1.77;;;22.80;98.50;;;;;;4246286;27;20139;-71
2021/07/05 09:50:49;;;;;;;3.63;1.50;;;22.80;98.60;;;;;;4246465;27;20047;-72
2021/07/05 09:52:54;;;;;;;3.55;1.30;;;22.70;98.60;;;;;;4245779;27;20058;-70
2021/07/05 09:54:59;;;;;;;5.00;1.52;;;22.50;98.60;;;;;;4246122;27;20055;-71
2021/07/05 09:57:05;;;;;;;5.53;1.38;;;22.60;98.90;;;;;;4245819;27;20591;-70
2021/07/05 09:59:17;;;;;;;3.28;1.20;;;22.60;98.90;;;;;;4246071;27;20439;-73
2021/07/05 10:01:39;;;;;;;5.20;1.20;;;22.80;98.40;;;;;;4246627;27;20047;-71
2021/07/05 10:03:47;;;;;;;3.97;1.20;;;23.00;97.70;;;;;;4245215;27;20057;-73
2021/07/05 10:05:51;;;;;;;2.80;1.40;;;23.00;98.30;;;;;;4246014;27;20123;-71
2021/07/05 10:08:00;;;;;;;3.35;1.42;;;22.90;98.30;;;;;;4246066;27;20047;-71
2021/07/05 10:10:11;;;;;;;2.38;1.30;;;23.00;98.40;;;;;;4236022;27;20063;-72
2021/07/05 10:12:26;;;;;;;6.10;1.20;;;23.10;98.00;;;;;;4230777;27;20054;-72
2021/07/05 10:14:29;;;;;;;3.20;1.10;;;22.90;98.20;;;;;;4245420;27;20043;-73
2021/07/05 10:16:32;;;;;;;8.95;1.10;;;22.90;98.20;;;;;;4245116;27;20061;-70
2021/07/05 10:18:36;;;;;;;5.75;1.30;;;22.80;98.70;;;;;;4245430;27;20061;-70
2021/07/05 10:20:41;;;;;;;4.22;1.00;;;22.80;98.50;;;;;;4245524;27;20059;-70
2021/07/05 10:22:46;;;;;;;2.80;1.15;;;22.80;98.40;;;;;;4245633;27;20053;-70
2021/07/05 10:24:52;;;;;;;7.35;1.20;;;22.80;98.60;;;;;;4245556;27;20047;-69
2021/07/05 10:26:56;;;;;;;7.72;0.88;;;22.90;98.70;;;;;;4245550;27;20051;-73
2021/07/05 10:29:00;;;;;;;4.30;1.00;;;22.80;98.20;;;;;;4227593;28;20126;-73
2021/07/05 10:31:03;;;;;;;2.95;0.70;;;22.90;97.70;;;;;;4243558;27;20111;-72
2021/07/05 10:33:07;;;;;;;1.98;0.77;;;23.10;97.50;;;;;;4245308;27;20055;-72
2021/07/05 10:35:12;;;;;;;0.80;0.60;;;23.10;97.80;;;;;;4249994;27;20062;-70
2021/07/05 10:37:19;;;;;;;;;;;23.10;97.20;;;;;;4245677;27;20183;-71
2021/07/05 10:39:24;;;;;;;1.83;0.82;;;23.00;97.20;;;;;;4244799;27;19919;-72
2021/07/05 10:41:36;;;;;;;0.77;0.57;;;22.80;97.20;;;;;;4244140;27;20074;-72
2021/07/05 10:43:50;;;;;;;2.70;0.60;;;22.90;97.40;;;;;;4243245;27;20138;-71
2021/07/05 10:45:59;;;;;;;0.85;0.50;;;22.90;97.40;;;;;;4234967;27;20047;-72
2021/07/05 10:48:04;;;;;;;1.55;0.60;;;23.10;97.30;;;;;;4245202;27;20070;-72
2021/07/05 10:50:09;;;;;;;2.97;0.82;;;23.20;97.30;;;;;;4245090;27;20494;-72